sensor_id;sensor_type;location;lat;lon;timestamp;P1;durP1;ratioP1;P2;durP2;ratioP2
26177;SDS011;13924;47.670;10.310;2023-02-26T00:00:39;5.2;;;2.7;;
26177;SDS011;13924;47.670;10.310;2023-02-26T00:15:39;6.1;;;3.1;;
26177;SDS011;13924;47.670;10.310;2023-02-26T00:30:40;5.0;;;3.9;;
26177;SDS011;13924;47.670;10.310;2023-02-26T00:45:41;5.1;;;4.1;;
26177;SDS011;13924;47.670;10.310;2023-02-26T01:00:41;6.1;;;4.8;;
26177;SDS011;13924;47.670;10.310;2023-02-26T01:15:43;5.8;;;4.3;;
26177;SDS011;13924;47.670;10.310;2023-02-26T01:30:42;5.4;;;4.3;;
26177;SDS011;13924;47.670;10.310;2023-02-26T01:45:45;5.3;;;4.0;;
26177;SDS011;13924;47.670;10.310;2023-02-26T02:00:43;5.5;;;4.1;;
26177;SDS011;13924;47.670;10.310;2023-02-26T02:01:27;5.2;;;4.8;;
26177;SDS011;13924;47.670;10.310;2023-02-26T02:15:45;6.7;;;3.7;;
26177;SDS011;13924;47.670;10.310;2023-02-26T02:30:52;5.0;;;3.0;;
26177;SDS011;13924;47.670;10.310;2023-02-26T02:45:46;3.9;;;3.6;;
26177;SDS011;13924;47.670;10.310;2023-02-26T03:00:47;4.6;;;3.6;;
26177;SDS011;13924;47.670;10.310;2023-02-26T03:15:49;3.7;;;3.0;;
26177;SDS011;13924;47.670;10.310;2023-02-26T03:30:48;5.5;;;3.2;;
26177;SDS011;13924;47.670;10.310;2023-02-26T03:45:49;3.9;;;3.3;;
26177;SDS011;13924;47.670;10.310;2023-02-26T04:00:51;3.2;;;2.6;;
26177;SDS011;13924;47.670;10.310;2023-02-26T04:15:50;5.5;;;3.7;;
26177;SDS011;13924;47.670;10.310;2023-02-26T04:30:50;3.3;;;2.7;;
26177;SDS011;13924;47.670;10.310;2023-02-26T04:45:51;3.3;;;2.7;;
26177;SDS011;13924;47.670;10.310;2023-02-26T05:00:51;6.2;;;2.9;;
26177;SDS011;13924;47.670;10.310;2023-02-26T05:15:52;4.3;;;3.1;;
26177;SDS011;13924;47.670;10.310;2023-02-26T05:30:54;3.0;;;2.6;;
26177;SDS011;13924;47.670;10.310;2023-02-26T05:45:53;5.4;;;2.7;;
26177;SDS011;13924;47.670;10.310;2023-02-26T05:59:21;4.3;;;2.3;;
26177;SDS011;13924;47.670;10.310;2023-02-26T06:14:23;4.7;;;2.6;;
26177;SDS011;13924;47.670;10.310;2023-02-26T06:29:32;3.6;;;2.8;;
26177;SDS011;13924;47.670;10.310;2023-02-26T06:44:22;3.1;;;2.6;;
26177;SDS011;13924;47.670;10.310;2023-02-26T06:59:23;4.8;;;3.3;;
26177;SDS011;13924;47.670;10.310;2023-02-26T07:14:23;7.0;;;3.2;;
26177;SDS011;13924;47.670;10.310;2023-02-26T07:29:24;5.6;;;3.1;;
26177;SDS011;13924;47.670;10.310;2023-02-26T07:44:25;5.5;;;3.1;;
26177;SDS011;13924;47.670;10.310;2023-02-26T07:59:26;9.1;;;4.4;;
26177;SDS011;13924;47.670;10.310;2023-02-26T08:14:29;5.9;;;3.4;;
26177;SDS011;13924;47.670;10.310;2023-02-26T08:29:32;4.3;;;2.8;;
26177;SDS011;13924;47.670;10.310;2023-02-26T08:44:45;7.3;;;3.4;;
26177;SDS011;13924;47.670;10.310;2023-02-26T09:14:31;4.6;;;2.6;;
26177;SDS011;13924;47.670;10.310;2023-02-26T09:29:35;4.2;;;2.2;;
26177;SDS011;13924;47.670;10.310;2023-02-26T09:44:34;2.6;;;1.8;;
26177;SDS011;13924;47.670;10.310;2023-02-26T09:59:31;3.7;;;2.1;;
26177;SDS011;13924;47.670;10.310;2023-02-26T10:14:36;4.5;;;2.5;;
26177;SDS011;13924;47.670;10.310;2023-02-26T10:29:33;3.2;;;2.5;;
26177;SDS011;13924;47.670;10.310;2023-02-26T10:44:37;2.5;;;2.2;;
26177;SDS011;13924;47.670;10.310;2023-02-26T10:59:35;4.1;;;2.6;;
26177;SDS011;13924;47.670;10.310;2023-02-26T11:14:34;5.1;;;2.6;;
26177;SDS011;13924;47.670;10.310;2023-02-26T11:29:38;3.3;;;2.4;;
26177;SDS011;13924;47.670;10.310;2023-02-26T11:44:39;2.3;;;2.0;;
26177;SDS011;13924;47.670;10.310;2023-02-26T11:59:39;2.3;;;2.0;;
26177;SDS011;13924;47.670;10.310;2023-02-26T13:30:03;4.3;;;3.4;;
26177;SDS011;13924;47.670;10.310;2023-02-26T13:44:42;6.2;;;3.4;;
26177;SDS011;13924;47.670;10.310;2023-02-26T13:59:45;3.5;;;3.2;;
26177;SDS011;13924;47.670;10.310;2023-02-26T14:14:42;3.5;;;3.1;;
26177;SDS011;13924;47.670;10.310;2023-02-26T14:29:43;3.5;;;3.2;;
26177;SDS011;13924;47.670;10.310;2023-02-26T14:44:47;6.3;;;4.9;;
26177;SDS011;13924;47.670;10.310;2023-02-26T14:59:49;4.5;;;3.6;;
26177;SDS011;13924;47.670;10.310;2023-02-26T15:29:55;5.7;;;5.1;;
26177;SDS011;13924;47.670;10.310;2023-02-26T15:44:49;4.3;;;3.9;;
26177;SDS011;13924;47.670;10.310;2023-02-26T15:59:48;3.9;;;3.6;;
26177;SDS011;13924;47.670;10.310;2023-02-26T16:14:47;4.2;;;3.9;;
26177;SDS011;13924;47.670;10.310;2023-02-26T16:29:49;3.8;;;3.4;;
26177;SDS011;13924;47.670;10.310;2023-02-26T16:44:50;4.0;;;3.1;;
26177;SDS011;13924;47.670;10.310;2023-02-26T16:59:50;3.8;;;3.3;;
26177;SDS011;13924;47.670;10.310;2023-02-26T17:14:51;6.5;;;3.8;;
26177;SDS011;13924;47.670;10.310;2023-02-26T17:29:51;5.0;;;3.6;;
26177;SDS011;13924;47.670;10.310;2023-02-26T17:44:52;4.4;;;3.4;;
26177;SDS011;13924;47.670;10.310;2023-02-26T17:59:55;3.1;;;2.6;;
26177;SDS011;13924;47.670;10.310;2023-02-26T18:14:52;232.5;;;62.5;;
26177;SDS011;13924;47.670;10.310;2023-02-26T18:29:54;424.6;;;118.6;;
26177;SDS011;13924;47.670;10.310;2023-02-26T18:44:54;269.5;;;83.7;;
26177;SDS011;13924;47.670;10.310;2023-02-26T18:59:56;147.7;;;49.4;;
26177;SDS011;13924;47.670;10.310;2023-02-26T19:14:55;108.3;;;36.4;;
26177;SDS011;13924;47.670;10.310;2023-02-26T19:30:02;71.1;;;24.8;;
26177;SDS011;13924;47.670;10.310;2023-02-26T19:44:58;11.8;;;6.8;;
26177;SDS011;13924;47.670;10.310;2023-02-26T20:00:07;91.1;;;27.7;;
26177;SDS011;13924;47.670;10.310;2023-02-26T20:14:58;18.5;;;11.5;;
26177;SDS011;13924;47.670;10.310;2023-02-26T20:30:01;21.6;;;12.0;;
26177;SDS011;13924;47.670;10.310;2023-02-26T20:45:00;11.7;;;7.9;;
26177;SDS011;13924;47.670;10.310;2023-02-26T21:00:04;6.9;;;5.2;;
26177;SDS011;13924;47.670;10.310;2023-02-26T21:15:04;13.8;;;8.3;;
26177;SDS011;13924;47.670;10.310;2023-02-26T21:30:07;7.3;;;5.8;;
26177;SDS011;13924;47.670;10.310;2023-02-26T21:45:03;7.5;;;6.1;;
26177;SDS011;13924;47.670;10.310;2023-02-26T22:00:05;8.4;;;6.0;;
26177;SDS011;13924;47.670;10.310;2023-02-26T22:15:05;6.8;;;5.5;;
26177;SDS011;13924;47.670;10.310;2023-02-26T22:30:06;5.9;;;4.9;;
26177;SDS011;13924;47.670;10.310;2023-02-26T22:45:06;12.7;;;6.6;;
26177;SDS011;13924;47.670;10.310;2023-02-26T23:00:12;7.0;;;4.8;;
26177;SDS011;13924;47.670;10.310;2023-02-26T23:15:37;6.5;;;5.6;;
26177;SDS011;13924;47.670;10.310;2023-02-26T23:30:40;7.0;;;6.3;;
26177;SDS011;13924;47.670;10.310;2023-02-26T23:45:39;7.0;;;5.8;;
